Time;durP1;ratioP1;P1;durP2;ratioP2;P2;SDS_P1;SDS_P2;PMS_P1;PMS_P2;Temp;Humidity;BMP_temperature;BMP_pressure;BME280_temperature;BME280_humidity;BME280_pressure;Samples;Min_cycle;Max_cycle;Signal;HPM_P1;HPM_P2
2022/02/17 00:01:02;;;;;;;0.30;0.30;;;13.40;72.90;;;;;;4937553;29;20214;-74
2022/02/17 00:03:29;;;;;;;3.42;0.70;;;13.40;72.60;;;;;;4936521;29;20207;-76
2022/02/17 00:05:57;;;;;;;0.32;0.32;;;13.40;73.10;;;;;;4936537;29;20210;-73
2022/02/17 00:08:24;;;;;;;0.95;0.30;;;13.40;72.40;;;;;;4936189;29;20590;-72
2022/02/17 00:10:51;;;;;;;0.40;0.30;;;13.40;72.00;;;;;;4936283;29;20214;-72
2022/02/17 00:13:20;;;;;;;0.30;0.30;;;13.40;72.00;;;;;;4936013;29;20214;-73
2022/02/17 00:15:47;;;;;;;0.30;0.30;;;13.40;72.00;;;;;;4937265;29;20246;-73
2022/02/17 00:18:21;;;;;;;2.10;0.40;;;13.30;72.00;;;;;;4936954;29;20206;-73
2022/02/17 00:20:48;;;;;;;0.30;0.30;;;13.40;72.20;;;;;;4935702;29;20207;-73
2022/02/17 00:23:14;;;;;;;0.60;0.52;;;13.40;72.70;;;;;;4937051;29;20563;-75
2022/02/17 00:25:41;;;;;;;1.00;0.52;;;13.30;73.40;;;;;;4940625;29;20240;-73
2022/02/17 00:28:09;;;;;;;0.60;0.40;;;13.30;73.70;;;;;;4940102;29;20250;-73
2022/02/17 00:30:37;;;;;;;0.40;0.30;;;13.30;74.40;;;;;;4936057;29;20210;-73
2022/02/17 00:33:04;;;;;;;0.30;0.30;;;13.30;74.30;;;;;;4935282;29;20214;-72
2022/02/17 00:35:31;;;;;;;0.55;0.30;;;13.30;72.80;;;;;;4935674;29;20543;-76
2022/02/17 00:37:59;;;;;;;0.30;0.30;;;13.40;72.30;;;;;;4935582;29;20218;-73
2022/02/17 00:40:26;;;;;;;2.10;0.40;;;13.40;71.80;;;;;;4934902;29;20780;-76
2022/02/17 00:42:53;;;;;;;0.30;0.30;;;13.40;71.20;;;;;;4936078;29;20433;-72
2022/02/17 00:45:20;;;;;;;0.30;0.30;;;13.50;70.80;;;;;;4936439;29;20581;-73
2022/02/17 00:47:49;;;;;;;4.10;0.50;;;13.50;70.70;;;;;;4937367;29;20220;-74
2022/02/17 00:50:17;;;;;;;0.30;0.30;;;13.50;70.70;;;;;;4936793;29;20458;-73
2022/02/17 00:52:43;;;;;;;0.63;0.30;;;13.50;70.70;;;;;;4935658;29;20429;-73
2022/02/17 00:55:10;;;;;;;0.40;0.30;;;13.50;70.70;;;;;;4936545;29;21065;-72
2022/02/17 00:57:37;;;;;;;0.30;0.30;;;13.50;70.70;;;;;;4944643;29;20472;-74
2022/02/17 01:00:05;;;;;;;0.50;0.32;;;13.50;70.00;;;;;;4942945;29;20469;-73
2022/02/17 01:02:32;;;;;;;0.40;0.30;;;13.60;69.60;;;;;;4935143;29;20214;-74
2022/02/17 01:05:01;;;;;;;0.20;0.20;;;13.60;68.90;;;;;;4935788;29;20408;-73
2022/02/17 01:07:28;;;;;;;0.30;0.30;;;13.60;69.30;;;;;;4935091;29;20683;-74
2022/02/17 01:09:55;;;;;;;0.30;0.25;;;13.60;69.70;;;;;;4937071;29;20815;-73
2022/02/17 01:12:22;;;;;;;0.30;0.30;;;13.60;69.50;;;;;;4940775;29;20217;-73
2022/02/17 01:14:48;;;;;;;0.30;0.30;;;13.60;69.40;;;;;;4943127;29;20452;-74
2022/02/17 01:17:15;;;;;;;0.30;0.30;;;13.50;69.30;;;;;;4943709;29;20489;-73
2022/02/17 01:19:42;;;;;;;0.57;0.37;;;13.50;69.20;;;;;;4943564;29;20522;-75
2022/02/17 01:22:12;;;;;;;0.30;0.30;;;13.50;69.50;;;;;;4947145;29;20441;-73
2022/02/17 01:24:38;;;;;;;0.30;0.30;;;13.60;69.40;;;;;;4946148;29;20569;-73
2022/02/17 01:27:06;;;;;;;0.40;0.40;;;13.50;69.90;;;;;;4944830;29;20477;-73
2022/02/17 01:29:32;;;;;;;1.13;0.40;;;13.50;70.70;;;;;;4939219;29;20493;-73
2022/02/17 01:31:59;;;;;;;0.30;0.30;;;13.50;70.70;;;;;;4938718;29;20221;-77
2022/02/17 01:34:26;;;;;;;0.40;0.40;;;13.40;71.00;;;;;;4938820;29;20482;-73
2022/02/17 01:36:53;;;;;;;0.30;0.30;;;13.40;71.20;;;;;;4939202;29;20222;-73
2022/02/17 01:39:21;;;;;;;0.50;0.40;;;13.40;71.30;;;;;;4940409;29;20289;-75
2022/02/17 01:41:48;;;;;;;0.40;0.40;;;13.40;70.70;;;;;;4940721;29;20213;-76
2022/02/17 01:44:15;;;;;;;0.20;0.20;;;13.40;70.70;;;;;;4938685;29;20249;-73
2022/02/17 01:46:43;;;;;;;0.40;0.30;;;13.50;70.70;;;;;;4939188;29;20228;-73
2022/02/17 01:49:11;;;;;;;0.30;0.20;;;13.60;69.90;;;;;;4939436;29;20604;-73
2022/02/17 01:51:38;;;;;;;0.30;0.30;;;13.70;69.60;;;;;;4938768;29;20581;-73
2022/02/17 01:54:06;;;;;;;0.37;0.30;;;13.70;69.40;;;;;;4919622;29;20510;-74
2022/02/17 01:56:37;;;;;;;0.40;0.30;;;13.70;69.20;;;;;;4919508;29;20549;-74
2022/02/17 01:59:06;;;;;;;0.38;0.20;;;13.70;68.90;;;;;;4937926;29;20465;-74
2022/02/17 02:01:34;;;;;;;0.30;0.30;;;13.80;68.80;;;;;;4938230;29;20215;-73
2022/02/17 02:04:02;;;;;;;0.30;0.30;;;13.70;69.10;;;;;;4938051;29;20742;-74
2022/02/17 02:06:29;;;;;;;0.30;0.20;;;13.80;69.20;;;;;;4938564;29;20207;-74
2022/02/17 02:08:56;;;;;;;0.50;0.30;;;13.80;68.80;;;;;;4938326;29;20601;-75
2022/02/17 02:11:23;;;;;;;0.20;0.20;;;13.80;68.90;;;;;;4938500;29;20222;-73
2022/02/17 02:13:52;;;;;;;0.70;0.35;;;13.80;69.00;;;;;;4938637;29;20233;-75
2022/02/17 02:16:18;;;;;;;0.82;0.40;;;13.70;69.10;;;;;;4940505;29;20305;-73
2022/02/17 02:18:45;;;;;;;0.20;0.20;;;13.80;69.20;;;;;;4948204;29;20257;-74
2022/02/17 02:21:14;;;;;;;0.40;0.30;;;13.70;69.00;;;;;;4950246;29;20250;-74
2022/02/17 02:23:41;;;;;;;1.60;0.30;;;13.70;68.80;;;;;;4949971;29;20978;-73
2022/02/17 02:26:08;;;;;;;0.30;0.30;;;13.80;68.50;;;;;;4940805;29;20458;-73
2022/02/17 02:28:35;;;;;;;0.30;0.20;;;13.80;68.10;;;;;;4938752;29;20482;-74
2022/02/17 02:31:02;;;;;;;0.40;0.23;;;13.90;68.00;;;;;;4939603;29;20234;-75
2022/02/17 02:33:29;;;;;;;0.20;0.20;;;13.80;67.90;;;;;;4939688;29;20516;-75
2022/02/17 02:35:56;;;;;;;0.20;0.20;;;13.90;67.90;;;;;;4943839;29;20450;-75
2022/02/17 02:38:25;;;;;;;0.30;0.30;;;13.90;67.40;;;;;;4951265;29;20429;-74
2022/02/17 02:40:53;;;;;;;0.40;0.40;;;13.90;67.20;;;;;;4948661;29;20463;-75
2022/02/17 02:43:20;;;;;;;0.20;0.20;;;13.90;67.30;;;;;;4950476;29;20470;-75
2022/02/17 02:45:46;;;;;;;0.20;0.20;;;13.90;67.00;;;;;;4958641;29;20440;-75
2022/02/17 02:48:15;;;;;;;0.20;0.20;;;13.90;66.70;;;;;;4958760;28;20478;-74
2022/02/17 02:50:43;;;;;;;0.20;0.20;;;13.90;66.70;;;;;;4954890;29;20443;-75
2022/02/17 02:53:14;;;;;;;0.30;0.30;;;14.00;67.30;;;;;;4939693;29;20546;-75
2022/02/17 02:55:43;;;;;;;0.30;0.30;;;14.00;66.40;;;;;;4940100;29;20470;-74
2022/02/17 02:58:10;;;;;;;0.30;0.30;;;14.00;66.20;;;;;;4938126;29;20913;-74
2022/02/17 03:00:37;;;;;;;0.20;0.20;;;14.00;66.00;;;;;;4940192;29;20765;-75
2022/02/17 03:03:04;;;;;;;0.40;0.30;;;14.00;65.80;;;;;;4940737;29;20737;-74
2022/02/17 03:05:31;;;;;;;0.43;0.30;;;14.10;65.70;;;;;;4946635;29;20226;-75
2022/02/17 03:07:58;;;;;;;0.53;0.30;;;14.10;65.00;;;;;;4940697;29;21019;-73
2022/02/17 03:10:27;;;;;;;0.43;0.30;;;14.20;65.00;;;;;;4938568;29;20468;-74
2022/02/17 03:12:55;;;;;;;0.50;0.50;;;14.20;64.70;;;;;;4938479;29;20524;-75
2022/02/17 03:15:22;;;;;;;0.40;0.33;;;14.20;64.80;;;;;;4937598;29;20493;-75
2022/02/17 03:17:50;;;;;;;0.70;0.30;;;14.20;65.00;;;;;;4936308;29;20478;-74
2022/02/17 03:20:17;;;;;;;0.40;0.30;;;14.20;65.10;;;;;;4937457;29;20441;-75
2022/02/17 03:22:44;;;;;;;0.50;0.20;;;14.20;65.20;;;;;;4936567;29;20539;-74
2022/02/17 03:25:13;;;;;;;1.90;0.30;;;14.20;65.10;;;;;;4936696;29;20478;-74
2022/02/17 03:27:40;;;;;;;0.77;0.40;;;14.20;64.90;;;;;;4937630;29;21015;-73
2022/02/17 03:30:10;;;;;;;0.40;0.30;;;14.20;64.90;;;;;;4937599;29;20494;-76
2022/02/17 03:35:28;;;;;;;0.50;0.30;;;14.20;65.20;;;;;;4933828;29;20449;-75
2022/02/17 03:37:55;;;;;;;0.23;0.23;;;14.20;65.40;;;;;;4940444;29;20456;-74
2022/02/17 03:40:22;;;;;;;0.30;0.30;;;14.20;65.50;;;;;;4946907;29;20428;-74
2022/02/17 03:42:49;;;;;;;0.30;0.30;;;14.20;65.50;;;;;;4944373;29;20473;-75
2022/02/17 03:45:17;;;;;;;0.20;0.20;;;14.20;65.60;;;;;;4945448;29;20847;-74
2022/02/17 03:47:44;;;;;;;0.30;0.30;;;14.20;66.10;;;;;;4941080;29;20866;-75
2022/02/17 03:50:11;;;;;;;0.30;0.30;;;14.00;71.20;;;;;;4939136;29;20500;-74
2022/02/17 03:52:38;;;;;;;0.43;0.43;;;13.70;74.20;;;;;;4938101;29;20520;-74
2022/02/17 03:55:06;;;;;;;0.30;0.30;;;13.50;75.20;;;;;;4938491;29;20230;-74
2022/02/17 03:57:33;;;;;;;0.30;0.30;;;13.40;75.50;;;;;;4940488;29;20301;-74
2022/02/17 04:00:00;;;;;;;0.30;0.30;;;13.50;73.60;;;;;;4959225;29;20498;-74
2022/02/17 04:02:28;;;;;;;0.30;0.20;;;13.60;72.80;;;;;;4958440;28;20191;-75
2022/02/17 04:04:55;;;;;;;0.97;0.40;;;13.60;71.90;;;;;;4940143;29;20329;-74
2022/02/17 04:07:22;;;;;;;0.30;0.30;;;13.70;71.90;;;;;;4938223;29;20510;-75
2022/02/17 04:09:49;;;;;;;2.80;0.30;;;13.70;72.40;;;;;;4937708;29;20486;-75
2022/02/17 04:12:16;;;;;;;0.20;0.20;;;13.70;73.00;;;;;;4937418;29;20215;-74
2022/02/17 04:14:43;;;;;;;0.22;0.20;;;13.60;73.40;;;;;;4938465;29;20257;-75
2022/02/17 04:17:09;;;;;;;0.20;0.20;;;13.60;73.70;;;;;;4940229;29;20241;-74
2022/02/17 04:19:38;;;;;;;0.30;0.30;;;13.60;72.60;;;;;;4941128;29;20458;-75
2022/02/17 04:22:05;;;;;;;0.30;0.30;;;13.70;72.30;;;;;;4938632;29;20540;-75
2022/02/17 04:24:32;;;;;;;0.40;0.40;;;13.80;71.00;;;;;;4938936;29;20465;-75
2022/02/17 04:26:59;;;;;;;1.07;0.30;;;13.80;71.70;;;;;;4938770;29;20448;-73
2022/02/17 04:29:26;;;;;;;0.30;0.30;;;13.80;72.00;;;;;;4938540;29;20485;-74
2022/02/17 04:31:53;;;;;;;0.20;0.20;;;13.70;72.70;;;;;;4938107;29;20437;-74
2022/02/17 04:34:20;;;;;;;0.22;0.20;;;13.70;73.70;;;;;;4939167;29;20269;-74
2022/02/17 04:36:48;;;;;;;0.30;0.30;;;13.70;73.60;;;;;;4940647;29;20221;-75
2022/02/17 04:39:15;;;;;;;0.22;0.20;;;13.70;73.60;;;;;;4943593;29;20597;-74
2022/02/17 04:44:26;;;;;;;0.30;0.30;;;13.60;75.20;;;;;;4952997;29;20266;-75
2022/02/17 04:46:53;;;;;;;0.30;0.30;;;13.50;76.80;;;;;;4958076;29;20447;-73
2022/02/17 04:49:20;;;;;;;0.40;0.30;;;13.50;76.80;;;;;;4957178;28;20207;-75
2022/02/17 04:51:48;;;;;;;0.30;0.30;;;13.50;77.60;;;;;;4936156;29;20199;-74
2022/02/17 04:54:15;;;;;;;0.20;0.20;;;13.50;79.50;;;;;;4926236;29;20271;-74
2022/02/17 04:56:42;;;;;;;0.30;0.30;;;13.30;82.20;;;;;;4940016;29;20211;-74
2022/02/17 04:59:09;;;;;;;0.57;0.40;;;13.20;82.50;;;;;;4947732;29;20305;-74
2022/02/17 05:01:36;;;;;;;0.50;0.40;;;13.10;78.10;;;;;;4951451;29;21111;-73
2022/02/17 05:04:03;;;;;;;2.80;0.63;;;13.10;75.70;;;;;;4971007;28;20264;-73
2022/02/17 05:06:30;;;;;;;1.95;0.50;;;13.10;75.20;;;;;;4973026;29;20304;-74
2022/02/17 05:08:58;;;;;;;1.40;0.68;;;13.10;72.90;;;;;;4965911;28;20225;-74
2022/02/17 05:11:25;;;;;;;1.25;0.60;;;13.00;71.90;;;;;;4941099;29;20235;-74
2022/02/17 05:13:52;;;;;;;2.38;0.50;;;13.00;68.50;;;;;;4937453;29;20230;-74
2022/02/17 05:16:19;;;;;;;2.28;0.68;;;13.00;67.10;;;;;;4936255;29;20715;-75
2022/02/17 05:18:45;;;;;;;4.53;0.90;;;13.00;65.20;;;;;;4937644;29;20229;-74
2022/02/17 05:21:13;;;;;;;7.45;1.10;;;13.00;63.70;;;;;;4936871;29;20297;-74
2022/02/17 05:23:40;;;;;;;3.88;1.92;;;13.00;61.40;;;;;;4937627;29;20242;-74
2022/02/17 05:26:08;;;;;;;4.53;1.30;;;13.00;61.30;;;;;;4937515;29;20242;-74
2022/02/17 05:28:35;;;;;;;4.80;1.20;;;12.90;61.30;;;;;;4938537;29;20214;-75
2022/02/17 05:31:02;;;;;;;5.18;1.58;;;12.90;61.30;;;;;;4936869;29;20329;-74
2022/02/17 05:33:29;;;;;;;5.10;1.17;;;12.80;61.20;;;;;;4937841;29;20304;-73
2022/02/17 05:35:56;;;;;;;3.00;0.90;;;12.80;59.90;;;;;;4943153;29;20207;-74
2022/02/17 05:38:23;;;;;;;3.78;1.13;;;12.80;60.50;;;;;;4949701;29;20278;-73
2022/02/17 05:41:00;;;;;;;5.33;1.97;;;12.70;61.10;;;;;;4948587;29;20203;-74
2022/02/17 05:43:28;;;;;;;2.35;1.10;;;12.70;61.10;;;;;;4911864;29;20891;-75
2022/02/17 08:23:49;;;;;;;9.93;1.95;;;12.60;43.40;;;;;;4994907;28;20216;-80
2022/02/17 08:30:20;;;;;;;9.20;2.45;;;12.70;43.10;;;;;;4880397;29;20224;-78
2022/02/17 08:33:03;;;;;;;13.40;2.33;;;12.70;42.40;;;;;;4858823;29;20355;-79
2022/02/17 08:35:30;;;;;;;11.52;2.97;;;12.80;42.10;;;;;;4875194;29;20227;-79
2022/02/17 08:38:00;;;;;;;8.15;2.80;;;12.90;42.20;;;;;;4870874;29;20221;-78
2022/02/17 08:47:25;;;;;;;9.90;2.47;;;13.00;40.30;;;;;;4739155;30;20242;-79
2022/02/17 08:49:52;;;;;;;11.52;3.05;;;12.90;39.20;;;;;;4740974;30;20256;-79
2022/02/17 08:52:21;;;;;;;11.93;3.17;;;12.90;39.60;;;;;;4746499;30;20266;-78
2022/02/17 08:54:50;;;;;;;15.23;3.47;;;12.80;38.80;;;;;;4802203;30;20341;-77
2022/02/17 08:57:19;;;;;;;10.13;2.72;;;12.80;38.80;;;;;;4804431;30;20220;-77
2022/02/17 08:59:46;;;;;;;7.97;2.70;;;12.70;38.80;;;;;;4804015;30;20216;-77
2022/02/17 09:02:13;;;;;;;13.38;2.90;;;12.70;38.90;;;;;;4803604;30;20216;-77
2022/02/17 09:04:40;;;;;;;13.95;3.45;;;12.60;38.80;;;;;;4805198;30;20231;-77
2022/02/17 09:07:07;;;;;;;11.23;3.10;;;12.60;39.30;;;;;;4804946;30;20220;-76
2022/02/17 09:09:34;;;;;;;11.90;3.97;;;12.60;39.60;;;;;;4805893;30;20216;-78
2022/02/17 09:12:01;;;;;;;15.80;3.67;;;12.60;39.60;;;;;;4788608;30;20220;-77
2022/02/17 09:14:29;;;;;;;14.80;4.22;;;12.50;39.60;;;;;;4795767;29;20327;-77
2022/02/17 09:16:56;;;;;;;15.98;3.80;;;12.50;39.10;;;;;;4800444;29;20325;-77
2022/02/17 09:19:23;;;;;;;15.05;3.42;;;12.50;39.40;;;;;;4823994;29;20218;-78
2022/02/17 09:21:50;;;;;;;12.90;2.67;;;12.40;39.00;;;;;;4953189;29;20628;-77
2022/02/17 09:24:18;;;;;;;17.02;3.65;;;12.40;39.20;;;;;;4960684;28;20229;-78
2022/02/17 09:26:46;;;;;;;15.20;3.70;;;12.40;39.30;;;;;;4965670;29;20225;-78
2022/02/17 09:29:13;;;;;;;17.98;3.75;;;12.40;40.00;;;;;;4971888;29;20218;-78
2022/02/17 09:31:45;;;;;;;15.73;4.10;;;12.40;40.30;;;;;;4962324;29;20309;-78
2022/02/17 09:34:12;;;;;;;16.15;4.20;;;12.40;40.00;;;;;;4959701;28;20289;-78
2022/02/17 09:36:39;;;;;;;11.50;3.25;;;12.30;40.70;;;;;;4959680;29;20205;-79
2022/02/17 09:39:07;;;;;;;18.85;4.40;;;12.50;40.10;;;;;;4960133;29;20576;-79
2022/02/17 09:41:34;;;;;;;12.55;3.80;;;12.60;39.60;;;;;;4973693;29;20205;-77
2022/02/17 09:46:45;;;;;;;16.67;3.60;;;12.60;38.30;;;;;;4970631;23;20261;-77
2022/02/17 09:49:17;;;;;;;13.95;3.35;;;12.50;39.10;;;;;;4958897;29;20211;-77
2022/02/17 09:51:48;;;;;;;10.00;3.42;;;12.50;38.90;;;;;;4951852;29;20709;-77
2022/02/17 09:54:15;;;;;;;12.85;3.47;;;12.50;39.40;;;;;;4942632;29;20231;-77
2022/02/17 09:56:43;;;;;;;18.95;3.30;;;12.50;39.50;;;;;;4943505;29;20214;-79
2022/02/17 09:59:11;;;;;;;18.50;3.50;;;12.50;39.90;;;;;;4942585;29;20241;-79
2022/02/17 10:01:39;;;;;;;15.40;3.55;;;12.40;40.30;;;;;;4943219;29;20238;-79
2022/02/17 10:04:18;;;;;;;10.98;2.85;;;12.40;40.60;;;;;;4943422;29;20235;-79
2022/02/17 10:06:47;;;;;;;20.20;3.83;;;12.40;40.80;;;;;;4952988;29;20674;-79
2022/02/17 10:09:18;;;;;;;14.00;3.05;;;12.30;41.10;;;;;;4950968;29;20206;-79
2022/02/17 10:11:51;;;;;;;9.55;3.47;;;12.30;41.60;;;;;;4961362;28;20225;-79
2022/02/17 10:17:06;;;;;;;18.10;3.30;;;12.30;41.60;;;;;;5192092;23;20267;-78
2022/02/17 10:19:39;;;;;;;9.65;3.30;;;12.40;41.70;;;;;;4957476;29;20213;-79
2022/02/17 10:22:08;;;;;;;10.60;3.35;;;12.40;41.70;;;;;;4958002;29;20195;-78
2022/02/17 10:24:44;;;;;;;7.45;2.45;;;12.60;41.90;;;;;;4959144;29;20219;-77
2022/02/17 10:27:13;;;;;;;12.65;2.75;;;12.60;40.30;;;;;;4957095;29;20202;-78
2022/02/17 10:29:52;;;;;;;13.68;3.30;;;12.70;40.10;;;;;;4956797;29;20221;-78
2022/02/17 10:32:26;;;;;;;14.05;3.22;;;12.80;39.70;;;;;;4949910;29;20315;-78
2022/02/17 10:35:15;;;;;;;18.90;3.55;;;12.80;39.90;;;;;;4945165;29;20240;-77
2022/02/17 10:37:49;;;;;;;17.02;3.28;;;12.80;39.60;;;;;;4944389;29;20207;-78
2022/02/17 10:40:22;;;;;;;9.93;3.20;;;12.80;38.40;;;;;;4945084;29;20270;-78
2022/02/17 10:43:02;;;;;;;15.43;2.97;;;12.70;38.40;;;;;;4945119;29;20187;-79
2022/02/17 10:45:31;;;;;;;13.07;3.40;;;12.70;37.90;;;;;;4942917;29;20246;-78
2022/02/17 10:48:14;;;;;;;13.88;3.20;;;12.70;37.10;;;;;;4943074;29;20579;-78
2022/02/17 10:50:45;;;;;;;13.15;2.70;;;12.70;37.00;;;;;;4942781;29;20250;-78
2022/02/17 10:53:30;;;;;;;11.98;3.28;;;12.80;37.90;;;;;;4942718;29;20213;-79
2022/02/17 10:56:01;;;;;;;17.05;2.97;;;12.80;38.10;;;;;;4943863;29;20261;-77
2022/02/17 10:58:37;;;;;;;10.45;2.42;;;12.80;39.30;;;;;;4940964;29;20302;-79
2022/02/17 11:01:11;;;;;;;15.00;3.13;;;12.70;39.90;;;;;;4944754;29;20206;-78
2022/02/17 11:03:40;;;;;;;15.13;4.03;;;12.70;40.40;;;;;;4953685;29;20229;-77
2022/02/17 11:06:16;;;;;;;13.57;4.25;;;12.70;40.40;;;;;;4946630;29;20282;-79
2022/02/17 11:08:48;;;;;;;11.52;3.28;;;12.70;40.20;;;;;;4943102;29;20219;-77
2022/02/17 11:11:18;;;;;;;16.52;4.40;;;12.60;39.80;;;;;;4942430;29;20317;-78
2022/02/17 11:13:53;;;;;;;17.85;3.47;;;12.60;40.00;;;;;;4944180;29;20206;-78
2022/02/17 11:16:23;;;;;;;12.70;3.38;;;12.60;39.80;;;;;;4943011;29;20681;-78
2022/02/17 11:18:51;;;;;;;15.65;3.72;;;12.60;39.20;;;;;;4942656;29;20301;-76
2022/02/17 11:21:20;;;;;;;15.32;3.70;;;12.60;39.60;;;;;;4941851;29;20206;-79
2022/02/17 11:23:48;;;;;;;19.90;3.88;;;12.80;39.50;;;;;;4948051;29;20301;-77
2022/02/17 11:26:25;;;;;;;23.42;3.40;;;12.80;38.80;;;;;;5621553;23;20202;-79
2022/02/17 11:28:53;;;;;;;11.47;3.90;;;12.80;38.60;;;;;;4957526;29;20579;-78
2022/02/17 11:31:21;;;;;;;17.77;3.53;;;12.80;38.10;;;;;;4959368;29;20472;-79
2022/02/17 11:34:02;;;;;;;13.02;3.40;;;12.80;37.90;;;;;;4958837;29;20217;-78
2022/02/17 11:36:34;;;;;;;15.52;4.15;;;12.80;37.10;;;;;;4936395;29;20195;-78
2022/02/17 11:39:10;;;;;;;13.98;3.50;;;12.80;37.10;;;;;;4931032;29;20215;-77
2022/02/17 11:41:41;;;;;;;14.57;4.30;;;12.80;37.40;;;;;;4938865;29;20238;-77
2022/02/17 11:44:20;;;;;;;24.25;3.97;;;12.70;37.00;;;;;;4931553;29;20727;-79
2022/02/17 11:46:56;;;;;;;10.07;2.80;;;12.70;36.70;;;;;;4925600;29;20236;-77
2022/02/17 11:49:52;;;;;;;13.75;3.58;;;12.70;37.00;;;;;;4919095;29;20647;-78
2022/02/17 11:52:23;;;;;;;14.32;3.40;;;12.80;36.10;;;;;;4917581;29;20232;-78
2022/02/17 11:55:22;;;;;;;14.15;3.08;;;12.70;35.70;;;;;;4910974;29;20251;-78
2022/02/17 11:57:52;;;;;;;11.98;3.35;;;12.80;35.90;;;;;;4909522;29;20216;-78
2022/02/17 12:00:34;;;;;;;13.90;3.88;;;12.70;36.20;;;;;;4914308;29;20199;-77
2022/02/17 12:03:02;;;;;;;12.73;3.55;;;12.70;36.90;;;;;;4913952;29;20207;-79
2022/02/17 12:05:30;;;;;;;14.07;3.50;;;12.80;37.10;;;;;;4915023;29;20263;-78
2022/02/17 12:08:24;;;;;;;19.55;3.60;;;12.80;36.10;;;;;;4915739;29;20208;-80
2022/02/17 12:10:55;;;;;;;12.70;3.50;;;12.90;36.00;;;;;;4915740;29;20231;-79
2022/02/17 12:13:27;;;;;;;8.55;2.83;;;12.90;35.70;;;;;;4913662;29;20287;-79
2022/02/17 12:37:38;;;;;;;19.15;3.17;;;12.60;37.60;;;;;;5050114;23;20272;-76
2022/02/17 12:40:06;;;;;;;12.48;3.08;;;12.60;37.80;;;;;;4963162;29;20210;-77
2022/02/17 12:42:40;;;;;;;10.82;3.05;;;12.60;38.00;;;;;;4959338;29;20292;-77
2022/02/17 12:45:08;;;;;;;16.13;3.55;;;12.60;38.10;;;;;;4960113;29;20205;-76
2022/02/17 12:47:35;;;;;;;12.60;3.78;;;12.40;38.60;;;;;;4956445;28;20233;-75
2022/02/17 12:50:06;;;;;;;9.25;3.15;;;12.40;39.00;;;;;;4955509;28;20209;-76
2022/02/17 12:52:34;;;;;;;15.43;4.00;;;12.40;39.10;;;;;;4955846;28;20591;-77
2022/02/17 12:55:07;;;;;;;21.48;4.03;;;12.50;38.60;;;;;;4956272;28;20209;-76
2022/02/17 12:57:35;;;;;;;19.00;4.10;;;12.70;38.80;;;;;;4956924;28;20408;-76
2022/02/17 13:00:02;;;;;;;19.08;4.60;;;13.00;38.30;;;;;;4958153;28;20438;-77
2022/02/17 13:02:29;;;;;;;17.58;4.50;;;13.20;37.90;;;;;;4958344;28;20198;-77
2022/02/17 13:05:00;;;;;;;17.43;4.10;;;13.40;37.70;;;;;;4961453;29;20238;-79
2022/02/17 13:07:29;;;;;;;15.20;4.63;;;13.40;37.60;;;;;;4962806;28;20567;-78
2022/02/17 13:09:59;;;;;;;23.17;5.30;;;13.50;37.50;;;;;;4962139;28;20540;-77
2022/02/17 13:12:27;;;;;;;17.10;4.03;;;13.40;37.70;;;;;;4959039;28;20495;-76
2022/02/17 13:14:55;;;;;;;16.48;4.15;;;13.30;38.00;;;;;;4963947;28;20453;-77
2022/02/17 13:17:23;;;;;;;15.90;4.60;;;13.20;37.20;;;;;;4963922;28;20205;-78
2022/02/17 13:19:52;;;;;;;20.42;4.57;;;13.10;37.40;;;;;;4967490;28;20538;-77
2022/02/17 13:22:21;;;;;;;14.65;3.85;;;13.00;38.00;;;;;;4971742;28;20214;-78
2022/02/17 13:24:55;;;;;;;17.50;3.92;;;13.00;37.60;;;;;;4971939;28;20202;-76
2022/02/17 13:27:22;;;;;;;19.17;4.65;;;12.90;38.00;;;;;;4971986;29;20233;-78
2022/02/17 13:29:55;;;;;;;20.42;5.10;;;12.90;37.70;;;;;;4973586;28;20301;-77
2022/02/17 13:32:24;;;;;;;21.63;3.47;;;12.90;37.80;;;;;;4973134;29;20273;-79
2022/02/17 13:34:51;;;;;;;21.60;4.70;;;13.00;38.00;;;;;;4962281;28;20233;-79
2022/02/17 13:37:18;;;;;;;16.63;3.55;;;13.00;38.10;;;;;;4962985;28;20237;-77
2022/02/17 13:39:59;;;;;;;25.17;4.03;;;13.00;39.00;;;;;;4960850;28;20210;-76
2022/02/17 13:42:25;;;;;;;11.57;3.53;;;12.80;40.20;;;;;;4958195;29;20194;-76
2022/02/17 13:44:54;;;;;;;13.68;4.95;;;12.60;41.00;;;;;;4957999;29;20214;-77
2022/02/17 13:47:34;;;;;;;15.13;3.95;;;12.60;41.70;;;;;;4957060;28;20320;-77
2022/02/17 13:50:05;;;;;;;23.83;3.95;;;12.60;42.60;;;;;;4957032;29;20224;-76
2022/02/17 13:52:31;;;;;;;14.65;3.38;;;12.60;41.10;;;;;;4956994;28;20226;-76
2022/02/17 13:55:00;;;;;;;20.23;3.83;;;12.70;41.30;;;;;;4955882;28;20206;-77
2022/02/17 13:57:28;;;;;;;17.15;4.10;;;12.80;41.40;;;;;;4956122;28;20232;-77
2022/02/17 14:00:06;;;;;;;22.27;4.03;;;12.80;41.70;;;;;;4956730;28;20210;-78
2022/02/17 14:02:33;;;;;;;19.15;4.82;;;12.80;40.80;;;;;;4963041;29;20227;-76
2022/02/17 14:05:07;;;;;;;12.70;2.97;;;12.90;40.70;;;;;;4959264;28;20722;-78
2022/02/17 14:07:34;;;;;;;15.70;3.80;;;12.80;40.60;;;;;;4954670;28;20234;-77
2022/02/17 14:10:02;;;;;;;24.83;4.55;;;12.80;40.50;;;;;;4955191;28;20210;-77
2022/02/17 14:12:29;;;;;;;17.63;4.30;;;12.80;40.60;;;;;;4956654;28;20218;-77
2022/02/17 14:14:59;;;;;;;26.73;3.90;;;12.80;40.50;;;;;;4959528;28;20210;-77
2022/02/17 14:17:27;;;;;;;13.23;3.75;;;12.80;40.60;;;;;;4957995;29;20312;-77
2022/02/17 14:19:54;;;;;;;20.65;3.92;;;12.80;41.00;;;;;;4958593;28;20705;-76
2022/02/17 14:22:21;;;;;;;13.70;4.38;;;13.00;40.70;;;;;;4959251;28;20214;-78
2022/02/17 14:24:48;;;;;;;18.17;4.43;;;13.10;40.80;;;;;;4959262;29;20308;-78
2022/02/17 14:27:15;;;;;;;14.95;3.92;;;13.00;41.10;;;;;;4955464;28;20309;-78
2022/02/17 14:29:42;;;;;;;14.60;4.35;;;12.60;41.90;;;;;;4956775;29;20232;-77
2022/02/17 14:32:09;;;;;;;17.17;3.80;;;12.30;42.80;;;;;;4956707;28;20217;-76
2022/02/17 14:35:09;;;;;;;11.88;3.05;;;12.30;43.10;;;;;;4958869;29;20218;-76
2022/02/17 14:37:24;;;;;;;8.35;2.60;;;12.40;42.80;;;;;;4959429;28;20249;-76
2022/02/17 14:39:51;;;;;;;9.27;2.60;;;12.30;42.70;;;;;;4961099;28;20245;-77
2022/02/17 14:42:18;;;;;;;12.27;2.90;;;12.10;42.90;;;;;;4960125;28;20209;-78
2022/02/17 14:44:45;;;;;;;15.23;3.22;;;12.10;43.20;;;;;;4959563;28;20678;-76
2022/02/17 14:47:13;;;;;;;11.35;2.72;;;12.10;43.10;;;;;;4960028;28;20256;-77
2022/02/17 14:49:42;;;;;;;12.43;2.67;;;12.10;43.10;;;;;;4962134;28;20240;-76
2022/02/17 14:52:08;;;;;;;11.90;3.20;;;12.10;42.50;;;;;;4959786;29;20317;-77
2022/02/17 14:54:35;;;;;;;16.27;3.28;;;12.20;42.90;;;;;;4965420;28;20206;-76
2022/02/17 14:57:02;;;;;;;13.23;3.70;;;12.10;42.80;;;;;;4973843;29;20229;-78
2022/02/17 14:59:29;;;;;;;17.27;3.65;;;12.20;43.20;;;;;;4975762;28;20202;-77
2022/02/17 15:01:56;;;;;;;11.98;3.55;;;12.20;42.40;;;;;;4974537;29;20225;-77
2022/02/17 15:04:23;;;;;;;16.40;3.28;;;12.20;42.00;;;;;;4977642;28;20244;-76
2022/02/17 15:06:51;;;;;;;16.02;3.00;;;12.30;42.30;;;;;;4976400;28;20290;-76
2022/02/17 15:09:18;;;;;;;13.32;2.85;;;12.30;42.20;;;;;;4968832;28;20214;-77
2022/02/17 15:11:45;;;;;;;12.70;3.30;;;12.30;42.10;;;;;;4964051;29;20232;-78
2022/02/17 15:14:12;;;;;;;10.98;3.38;;;12.40;42.10;;;;;;4976093;28;20233;-76
2022/02/17 15:16:39;;;;;;;13.90;3.70;;;12.50;41.80;;;;;;4970581;28;20222;-77
2022/02/17 15:19:06;;;;;;;15.65;2.95;;;12.60;41.90;;;;;;4961075;29;20212;-78
2022/02/17 15:21:33;;;;;;;12.15;2.95;;;12.70;42.00;;;;;;4961177;28;20206;-77
2022/02/17 15:24:01;;;;;;;11.35;2.35;;;12.70;40.90;;;;;;4961067;28;20646;-79
2022/02/17 15:26:29;;;;;;;13.00;3.35;;;12.70;40.10;;;;;;4961089;28;20226;-77
2022/02/17 15:28:56;;;;;;;10.40;2.55;;;12.70;39.40;;;;;;4960913;28;20205;-78
2022/02/17 15:31:23;;;;;;;9.38;3.30;;;12.60;39.50;;;;;;4961789;29;20213;-78
2022/02/17 15:33:53;;;;;;;10.18;2.47;;;12.50;39.60;;;;;;4963303;29;20202;-81
2022/02/17 15:36:20;;;;;;;11.32;3.40;;;12.30;40.40;;;;;;4964378;28;20244;-77
2022/02/17 15:38:47;;;;;;;13.18;2.65;;;12.10;41.10;;;;;;4968326;29;20265;-77
2022/02/17 15:41:15;;;;;;;17.48;3.53;;;12.00;40.50;;;;;;4971496;29;20253;-77
2022/02/17 15:43:43;;;;;;;14.23;3.17;;;11.90;40.60;;;;;;4971836;28;20206;-77
2022/02/17 15:46:10;;;;;;;9.75;2.45;;;11.90;40.80;;;;;;4969898;29;20230;-77
2022/02/17 15:48:37;;;;;;;11.90;3.40;;;11.90;40.60;;;;;;4972483;29;20210;-75
2022/02/17 15:51:04;;;;;;;10.80;2.63;;;11.80;41.20;;;;;;4973714;29;20209;-76
2022/02/17 15:53:32;;;;;;;10.43;2.30;;;11.90;40.70;;;;;;4967121;29;20234;-77
2022/02/17 15:55:59;;;;;;;11.45;2.78;;;11.90;40.80;;;;;;4962823;28;20229;-78
2022/02/17 15:58:27;;;;;;;12.45;2.88;;;11.90;41.30;;;;;;4972613;29;20210;-78
2022/02/17 16:00:54;;;;;;;14.35;3.13;;;11.90;41.30;;;;;;4968911;28;20254;-77
2022/02/17 16:03:21;;;;;;;11.60;2.50;;;11.90;41.30;;;;;;4969465;29;20209;-77
2022/02/17 16:05:49;;;;;;;10.98;2.90;;;11.90;41.30;;;;;;4967252;28;20233;-77
2022/02/17 16:08:16;;;;;;;11.90;2.80;;;11.80;41.80;;;;;;4966042;29;20217;-77
2022/02/17 16:10:43;;;;;;;14.35;2.75;;;11.80;42.20;;;;;;4965780;28;20633;-78